createdAt,value
2019-05-30T00:00:35.384Z,47.49
2019-05-30T00:01:38.091Z,47.84
2019-05-30T00:02:41.180Z,48.89
2019-05-30T00:03:43.875Z,46.93
2019-05-30T00:04:46.989Z,48.01
2019-05-30T00:05:49.715Z,46.86
2019-05-30T00:06:56.925Z,48.31
2019-05-30T00:07:58.537Z,46.83
2019-05-30T00:09:06.647Z,46.84
2019-05-30T00:10:09.086Z,48.16
2019-05-30T00:11:12.213Z,48.58
2019-05-30T00:12:14.848Z,47.18
2019-05-30T00:13:17.263Z,47.92
2019-05-30T00:14:19.816Z,46.63
2019-05-30T00:15:22.336Z,47.30
2019-05-30T00:16:24.883Z,44.56
2019-05-30T00:17:27.343Z,46.26
2019-05-30T00:18:30.057Z,47.15
2019-05-30T00:19:33.952Z,46.78
2019-05-30T00:20:36.629Z,46.25
2019-05-30T00:21:39.013Z,45.98
2019-05-30T00:22:41.445Z,46.09
2019-05-30T00:23:43.858Z,44.23
2019-05-30T00:24:45.724Z,43.91
2019-05-30T00:25:48.270Z,43.65
2019-05-30T00:26:52.795Z,46.11
2019-05-30T00:27:55.278Z,43.68
2019-05-30T00:28:58.325Z,45.90
2019-05-30T00:30:01.470Z,45.70
2019-05-30T00:31:04.695Z,43.52
2019-05-30T00:32:07.845Z,45.09
2019-05-30T00:33:10.383Z,44.90
2019-05-30T00:34:12.761Z,46.14
2019-05-30T00:35:16.680Z,45.31
2019-05-30T00:36:20.851Z,45.84
2019-05-30T00:37:24.715Z,43.53
2019-05-30T00:38:27.534Z,43.74
2019-05-30T00:39:30.629Z,43.42
2019-05-30T00:40:33.380Z,48.95
2019-05-30T00:41:35.856Z,48.21
2019-05-30T00:42:37.690Z,45.31
2019-05-30T00:43:40.826Z,46.45
2019-05-30T00:44:43.229Z,45.29
2019-05-30T00:45:45.031Z,48.96
2019-05-30T00:46:47.577Z,49.27
2019-05-30T00:47:51.986Z,45.20
2019-05-30T00:48:53.785Z,45.43
2019-05-30T00:49:58.104Z,49.07
2019-05-30T00:51:00.493Z,47.81
2019-05-30T00:52:05.079Z,45.36
2019-05-30T00:53:07.746Z,46.50
2019-05-30T00:54:10.157Z,47.37
2019-05-30T00:55:12.952Z,47.09
2019-05-30T00:56:15.408Z,47.76
2019-05-30T00:57:17.858Z,48.30
2019-05-30T00:58:19.820Z,48.15
2019-05-30T00:59:22.276Z,47.39
2019-05-30T01:00:41.940Z,48.12
2019-05-30T01:01:29.874Z,49.27
2019-05-30T01:02:32.193Z,51.65
2019-05-30T01:03:34.951Z,50.19
2019-05-30T01:04:37.395Z,48.60
2019-05-30T01:05:40.420Z,48.38
2019-05-30T01:06:42.862Z,50.77
2019-05-30T01:07:45.371Z,47.45
2019-05-30T01:08:47.676Z,47.38
2019-05-30T01:09:49.727Z,48.18
2019-05-30T01:10:51.997Z,47.09
2019-05-30T01:11:55.187Z,48.81
2019-05-30T01:12:59.920Z,48.79
2019-05-30T01:14:05.326Z,48.37
2019-05-30T01:15:09.603Z,48.57
2019-05-30T01:16:11.460Z,48.95
2019-05-30T01:17:14.396Z,52.18
2019-05-30T01:18:16.671Z,49.47
2019-05-30T01:19:19.533Z,50.17
2019-05-30T01:20:22.251Z,51.10
2019-05-30T01:21:24.077Z,47.63
2019-05-30T01:22:26.480Z,47.99
2019-05-30T01:23:29.005Z,52.60
2019-05-30T01:24:31.947Z,49.41
2019-05-30T01:25:34.608Z,48.28
2019-05-30T01:26:37.348Z,47.43
2019-05-30T01:27:39.633Z,48.55
2019-05-30T01:28:41.919Z,49.34
2019-05-30T01:29:44.501Z,51.02
2019-05-30T01:30:59.639Z,49.08
2019-05-30T01:31:51.321Z,48.31
2019-05-30T01:32:53.759Z,48.11
2019-05-30T01:33:55.434Z,49.68
2019-05-30T01:34:59.777Z,46.78
2019-05-30T01:36:05.818Z,46.83
2019-05-30T01:37:07.897Z,46.31
2019-05-30T01:38:10.445Z,46.17
2019-05-30T01:39:12.230Z,47.66
2019-05-30T01:40:14.231Z,46.64
2019-05-30T01:41:17.691Z,49.94
2019-05-30T01:42:20.013Z,50.10
2019-05-30T01:43:23.536Z,47.74
2019-05-30T01:44:25.877Z,46.12
2019-05-30T01:45:28.380Z,48.65
2019-05-30T01:46:31.022Z,46.11
2019-05-30T01:47:33.385Z,49.54
2019-05-30T01:48:35.928Z,44.60
2019-05-30T01:49:39.685Z,45.23
2019-05-30T01:50:43.635Z,45.17
2019-05-30T01:51:45.981Z,46.46
2019-05-30T01:52:48.835Z,47.97
2019-05-30T01:53:52.556Z,49.87
2019-05-30T01:54:54.349Z,50.01
2019-05-30T01:55:58.585Z,47.92
2019-05-30T01:57:01.134Z,49.04
2019-05-30T01:58:05.085Z,50.15
2019-05-30T01:59:08.789Z,49.58
2019-05-30T02:00:21.129Z,46.14
2019-05-30T02:01:25.183Z,47.52
2019-05-30T02:02:24.071Z,48.65
2019-05-30T02:03:26.606Z,46.45
2019-05-30T02:04:29.296Z,47.60
2019-05-30T02:05:32.103Z,46.70
2019-05-30T02:06:37.916Z,50.05
2019-05-30T02:07:40.974Z,47.37
2019-05-30T02:08:44.784Z,46.52
2019-05-30T02:09:48.087Z,45.64
2019-05-30T02:10:50.780Z,46.47
2019-05-30T02:11:54.384Z,46.79
2019-05-30T02:12:56.557Z,46.17
2019-05-30T02:13:59.542Z,46.07
2019-05-30T02:15:07.776Z,46.59
2019-05-30T02:16:10.169Z,46.83
2019-05-30T02:17:13.057Z,48.73
2019-05-30T02:18:15.341Z,48.66
2019-05-30T02:19:17.941Z,50.18
2019-05-30T02:20:20.961Z,50.17
2019-05-30T02:21:22.695Z,48.82
2019-05-30T02:22:25.301Z,50.02
2019-05-30T02:23:27.858Z,49.09
2019-05-30T02:24:30.315Z,51.53
2019-05-30T02:25:32.702Z,48.50
2019-05-30T02:26:35.731Z,49.17
2019-05-30T02:27:38.209Z,48.65
2019-05-30T02:28:41.499Z,49.45
2019-05-30T02:29:44.214Z,50.89
2019-05-30T02:30:46.723Z,48.78
2019-05-30T02:31:49.960Z,50.82
2019-05-30T02:32:52.290Z,52.15
2019-05-30T02:33:55.966Z,51.17
2019-05-30T02:35:00.805Z,51.38
2019-05-30T02:36:05.766Z,54.15
2019-05-30T02:37:08.540Z,51.27
2019-05-30T02:38:12.044Z,50.64
2019-05-30T02:39:14.809Z,50.10
2019-05-30T02:40:17.462Z,49.37
2019-05-30T02:41:19.682Z,51.91
2019-05-30T02:42:22.050Z,50.39
2019-05-30T02:43:23.820Z,49.69
2019-05-30T02:44:26.134Z,50.95
2019-05-30T02:45:28.713Z,50.59
2019-05-30T02:46:31.281Z,50.71
2019-05-30T02:47:33.800Z,48.99
2019-05-30T02:48:56.859Z,48.99
2019-05-30T02:49:41.008Z,49.96
2019-05-30T02:50:43.343Z,50.97
2019-05-30T02:51:46.149Z,54.16
2019-05-30T02:52:49.001Z,50.19
2019-05-30T02:53:51.861Z,52.73
2019-05-30T02:54:54.941Z,48.57
2019-05-30T02:55:57.391Z,49.81
2019-05-30T02:57:01.309Z,53.95
2019-05-30T02:58:05.592Z,51.46
2019-05-30T02:59:09.198Z,51.46
2019-05-30T03:00:16.732Z,50.28
2019-05-30T03:01:16.991Z,51.13
2019-05-30T03:02:19.802Z,51.22
2019-05-30T03:03:22.181Z,51.21
2019-05-30T03:04:24.700Z,51.25
2019-05-30T03:05:27.013Z,52.03
2019-05-30T03:06:30.925Z,50.61
2019-05-30T03:07:34.132Z,52.66
2019-05-30T03:08:36.540Z,53.67
2019-05-30T03:09:39.346Z,53.79
2019-05-30T03:10:42.799Z,53.88
2019-05-30T03:11:45.569Z,53.78
2019-05-30T03:12:48.973Z,54.59
2019-05-30T03:13:52.995Z,53.26
2019-05-30T03:14:55.707Z,56.25
2019-05-30T03:15:58.114Z,53.11
2019-05-30T03:17:02.562Z,51.82
2019-05-30T03:18:09.427Z,53.47
2019-05-30T03:19:12.766Z,51.95
2019-05-30T03:20:22.893Z,52.33
2019-05-30T03:21:21.900Z,55.30
2019-05-30T03:22:23.731Z,51.70
2019-05-30T03:23:26.635Z,52.34
2019-05-30T03:24:29.193Z,51.63
2019-05-30T03:25:31.179Z,51.97
2019-05-30T03:26:33.865Z,54.57
2019-05-30T03:27:35.794Z,51.72
2019-05-30T03:28:38.058Z,50.89
2019-05-30T03:29:40.615Z,54.32
2019-05-30T03:30:44.496Z,49.58
2019-05-30T03:31:48.262Z,50.58
2019-05-30T03:33:19.117Z,52.10
2019-05-30T03:33:55.346Z,51.78
2019-05-30T03:34:58.316Z,51.21
2019-05-30T03:36:04.866Z,52.92
2019-05-30T03:37:10.629Z,51.96
2019-05-30T03:38:12.804Z,52.88
2019-05-30T03:39:15.536Z,54.69
2019-05-30T03:40:18.627Z,53.79
2019-05-30T03:41:22.184Z,55.33
2019-05-30T03:42:24.740Z,51.98
2019-05-30T03:43:27.065Z,52.89
2019-05-30T03:44:29.571Z,53.80
2019-05-30T03:45:33.811Z,51.91
2019-05-30T03:46:41.901Z,51.57
2019-05-30T03:47:52.813Z,51.67
2019-05-30T03:48:59.282Z,53.49
2019-05-30T03:50:05.171Z,54.14
2019-05-30T03:51:12.525Z,53.67
2019-05-30T03:52:17.535Z,52.99
2019-05-30T03:53:20.907Z,53.60
2019-05-30T03:54:24.937Z,55.36
2019-05-30T03:55:30.537Z,53.10
2019-05-30T03:56:43.122Z,54.05
2019-05-30T03:58:21.577Z,52.73
2019-05-30T03:59:31.148Z,55.64
2019-05-30T04:00:44.681Z,53.63
2019-05-30T04:02:19.019Z,55.62
2019-05-30T04:03:47.943Z,53.00
2019-05-30T04:05:09.374Z,56.12
2019-05-30T04:06:36.426Z,54.29
2019-05-30T04:07:44.891Z,55.55
2019-05-30T04:08:51.678Z,56.11
2019-05-30T04:09:58.865Z,54.95
2019-05-30T04:11:07.667Z,57.24
2019-05-30T04:12:51.120Z,54.88
2019-05-30T04:14:02.139Z,55.23
2019-05-30T04:15:32.922Z,54.60
2019-05-30T04:16:34.944Z,53.22
2019-05-30T04:17:37.336Z,55.46
2019-05-30T04:18:39.194Z,52.73
2019-05-30T04:19:43.070Z,53.25
2019-05-30T04:20:45.450Z,54.68
2019-05-30T04:21:49.354Z,52.92
2019-05-30T04:22:52.273Z,51.47
2019-05-30T04:23:54.618Z,54.07
2019-05-30T04:24:56.339Z,53.08
2019-05-30T04:26:00.867Z,51.59
2019-05-30T04:27:07.761Z,51.47
2019-05-30T04:28:11.943Z,49.94
2019-05-30T04:29:16.635Z,50.40
2019-05-30T04:30:19.820Z,49.87
2019-05-30T04:31:22.224Z,52.61
2019-05-30T04:32:24.569Z,52.35
2019-05-30T04:33:33.107Z,50.37
2019-05-30T04:34:32.491Z,49.20
2019-05-30T04:35:35.190Z,49.87
2019-05-30T04:36:37.591Z,51.12
2019-05-30T04:37:40.030Z,52.89
2019-05-30T04:38:43.042Z,51.08
2019-05-30T04:39:45.814Z,50.44
2019-05-30T04:40:49.227Z,52.92
2019-05-30T04:41:51.597Z,51.31
2019-05-30T04:42:54.345Z,50.74
2019-05-30T04:43:59.350Z,48.16
2019-05-30T04:45:07.437Z,49.23
2019-05-30T04:46:10.788Z,50.50
2019-05-30T04:47:14.370Z,53.07
2019-05-30T04:48:21.139Z,51.13
2019-05-30T04:49:23.463Z,51.82
2019-05-30T04:50:25.843Z,49.28
2019-05-30T04:51:28.735Z,50.74
2019-05-30T04:52:31.487Z,52.16
2019-05-30T04:53:34.231Z,51.86
2019-05-30T04:54:38.708Z,54.24
2019-05-30T04:55:41.169Z,52.30
2019-05-30T04:56:44.021Z,51.90
2019-05-30T04:57:45.799Z,54.82
2019-05-30T04:58:48.114Z,53.63
2019-05-30T04:59:50.568Z,51.50
2019-05-30T05:00:52.348Z,51.38
2019-05-30T05:01:55.076Z,50.08
2019-05-30T05:02:57.488Z,51.67
2019-05-30T05:04:00.400Z,52.84
2019-05-30T05:05:06.511Z,53.11
2019-05-30T05:06:08.867Z,53.34
2019-05-30T05:07:13.584Z,54.08
2019-05-30T05:08:17.759Z,54.22
2019-05-30T05:09:22.156Z,54.71
2019-05-30T05:10:24.720Z,54.12
2019-05-30T05:11:27.265Z,51.48
2019-05-30T05:12:29.362Z,52.88
2019-05-30T05:13:31.677Z,51.93
2019-05-30T05:14:34.390Z,51.02
2019-05-30T05:15:37.188Z,51.68
2019-05-30T05:16:39.875Z,50.27
2019-05-30T05:17:43.288Z,51.49
2019-05-30T05:18:45.184Z,49.70
2019-05-30T05:19:48.435Z,50.02
2019-05-30T05:20:50.752Z,49.11
2019-05-30T05:21:53.352Z,48.10
2019-05-30T05:22:57.007Z,50.19
2019-05-30T05:23:59.374Z,50.19
2019-05-30T05:25:01.530Z,46.61
2019-05-30T05:26:03.814Z,48.77
2019-05-30T05:27:10.502Z,49.57
2019-05-30T05:28:13.638Z,46.98
2019-05-30T05:29:17.929Z,49.22
2019-05-30T05:30:22.427Z,47.35
2019-05-30T05:31:25.452Z,49.59
2019-05-30T05:32:27.931Z,50.52
2019-05-30T05:33:29.922Z,48.08
2019-05-30T05:34:32.315Z,50.04
2019-05-30T05:35:34.623Z,48.68
2019-05-30T05:36:39.363Z,46.17
2019-05-30T05:37:41.034Z,45.80
2019-05-30T05:38:43.748Z,45.54
2019-05-30T05:39:46.204Z,44.96
2019-05-30T05:40:49.046Z,45.88
2019-05-30T05:41:52.293Z,45.78
2019-05-30T05:42:54.070Z,45.41
2019-05-30T05:43:59.208Z,47.70
2019-05-30T05:45:04.955Z,46.25
2019-05-30T05:46:07.246Z,47.04
2019-05-30T05:47:09.653Z,47.73
2019-05-30T05:48:14.326Z,48.76
2019-05-30T05:49:18.400Z,49.93
2019-05-30T05:50:20.882Z,51.54
2019-05-30T05:51:25.161Z,52.51
2019-05-30T05:52:28.884Z,48.98
2019-05-30T05:53:32.360Z,47.80
2019-05-30T05:54:35.162Z,48.03
2019-05-30T05:55:37.443Z,50.17
2019-05-30T05:56:39.929Z,48.86
2019-05-30T05:57:43.025Z,48.02
2019-05-30T05:58:45.615Z,48.48
2019-05-30T05:59:49.019Z,48.54
2019-05-30T06:00:51.466Z,48.29
2019-05-30T06:01:53.815Z,48.86
2019-05-30T06:02:56.126Z,48.09
2019-05-30T06:04:12.124Z,49.12
2019-05-30T06:05:05.269Z,52.19
2019-05-30T06:06:08.199Z,48.72
2019-05-30T06:07:10.701Z,48.98
2019-05-30T06:08:13.093Z,48.15
2019-05-30T06:09:16.433Z,51.21
2019-05-30T06:10:21.880Z,49.15
2019-05-30T06:11:24.647Z,47.07
2019-05-30T06:12:27.934Z,46.64
2019-05-30T06:13:30.872Z,47.33
2019-05-30T06:14:34.199Z,50.48
2019-05-30T06:15:36.556Z,48.36
2019-05-30T06:16:38.604Z,47.52
2019-05-30T06:17:40.928Z,48.82
2019-05-30T06:18:43.481Z,47.51
2019-05-30T06:19:46.984Z,48.13
2019-05-30T06:20:51.034Z,48.45
2019-05-30T06:21:54.534Z,47.99
2019-05-30T06:22:57.332Z,46.98
2019-05-30T06:23:59.740Z,47.38
2019-05-30T06:25:06.183Z,44.98
2019-05-30T06:26:08.417Z,45.97
2019-05-30T06:27:11.580Z,46.02
2019-05-30T06:28:14.046Z,44.98
2019-05-30T06:29:20.018Z,44.79
2019-05-30T06:30:24.372Z,44.65
2019-05-30T06:31:28.624Z,47.69
2019-05-30T06:32:31.925Z,43.37
2019-05-30T06:33:34.334Z,44.48
2019-05-30T06:34:39.657Z,49.45
2019-05-30T06:35:41.439Z,47.52
2019-05-30T06:36:44.065Z,44.09
2019-05-30T06:37:47.041Z,48.28
2019-05-30T06:38:50.078Z,44.17
2019-05-30T06:39:53.315Z,44.34
2019-05-30T06:40:55.776Z,44.38
2019-05-30T06:41:58.748Z,45.02
2019-05-30T06:43:01.095Z,46.77
2019-05-30T06:44:05.733Z,43.48
2019-05-30T06:45:08.715Z,44.57
2019-05-30T06:46:10.760Z,43.66
2019-05-30T06:47:13.496Z,42.43
2019-05-30T06:48:16.614Z,42.79
2019-05-30T06:49:20.602Z,42.04
2019-05-30T06:50:23.169Z,42.62
2019-05-30T06:51:29.088Z,42.88
2019-05-30T06:52:32.122Z,43.51
2019-05-30T06:53:35.199Z,43.39
2019-05-30T06:54:37.031Z,45.02
2019-05-30T06:55:41.382Z,47.66
2019-05-30T06:56:44.795Z,43.51
2019-05-30T06:57:47.716Z,43.08
2019-05-30T06:58:50.300Z,43.35
2019-05-30T06:59:52.821Z,43.90
2019-05-30T07:00:55.437Z,42.93
2019-05-30T07:02:00.543Z,44.68
2019-05-30T07:03:03.661Z,41.95
2019-05-30T07:04:07.529Z,42.67
2019-05-30T07:05:11.407Z,42.43
2019-05-30T07:06:14.876Z,42.54
2019-05-30T07:07:19.475Z,42.43
2019-05-30T07:08:22.690Z,38.96
2019-05-30T07:09:24.948Z,46.56
2019-05-30T07:10:28.775Z,39.07
2019-05-30T07:11:31.647Z,37.55
2019-05-30T07:12:34.029Z,43.89
2019-05-30T07:13:36.327Z,36.49
2019-05-30T07:14:40.160Z,36.58
2019-05-30T07:15:42.627Z,38.78
2019-05-30T07:16:44.885Z,37.47
2019-05-30T07:17:47.611Z,38.30
2019-05-30T07:18:50.550Z,35.82
2019-05-30T07:19:53.321Z,36.94
2019-05-30T07:20:56.144Z,38.64
2019-05-30T07:21:58.910Z,39.21
2019-05-30T07:23:01.846Z,36.44
2019-05-30T07:24:04.525Z,41.92
2019-05-30T07:25:09.248Z,35.01
2019-05-30T07:26:12.116Z,34.01
2019-05-30T07:27:14.981Z,36.69
2019-05-30T07:28:17.631Z,37.08
2019-05-30T07:29:20.544Z,36.74
2019-05-30T07:30:26.110Z,40.83
2019-05-30T07:31:32.223Z,36.21
2019-05-30T07:32:34.773Z,33.95
2019-05-30T07:33:36.628Z,33.12
2019-05-30T07:34:39.275Z,34.61
2019-05-30T07:35:42.026Z,34.23
2019-05-30T07:36:45.200Z,34.37
2019-05-30T07:37:47.629Z,34.60
2019-05-30T07:38:50.225Z,38.36
2019-05-30T07:39:53.273Z,33.29
2019-05-30T07:40:55.952Z,33.69
2019-05-30T07:42:06.201Z,38.39
2019-05-30T07:43:02.973Z,35.06
2019-05-30T07:44:05.681Z,36.67
2019-05-30T07:45:10.364Z,35.29
2019-05-30T07:46:14.729Z,35.79
2019-05-30T07:47:17.435Z,32.93
2019-05-30T07:48:19.580Z,35.12
2019-05-30T07:49:21.775Z,33.43
2019-05-30T07:50:26.192Z,33.85
2019-05-30T07:51:30.615Z,34.97
2019-05-30T07:52:34.786Z,32.34
2019-05-30T07:53:39.068Z,36.62
2019-05-30T07:54:41.703Z,35.69
2019-05-30T07:55:44.332Z,34.86
2019-05-30T07:56:47.332Z,32.23
2019-05-30T07:57:50.083Z,34.12
2019-05-30T07:58:53.237Z,32.38
2019-05-30T07:59:56.081Z,32.46
2019-05-30T08:00:59.308Z,32.58
2019-05-30T08:02:04.709Z,33.36
2019-05-30T08:03:08.851Z,33.70
2019-05-30T08:04:13.258Z,34.57
2019-05-30T08:05:24.096Z,34.88
2019-05-30T08:06:21.461Z,34.76
2019-05-30T08:07:23.798Z,33.61
2019-05-30T08:08:26.218Z,33.58
2019-05-30T08:09:30.792Z,34.63
2019-05-30T08:10:34.027Z,33.57
2019-05-30T08:11:36.841Z,34.29
2019-05-30T08:12:39.438Z,34.39
2019-05-30T08:13:42.485Z,34.22
2019-05-30T08:14:46.033Z,34.50
2019-05-30T08:15:48.917Z,34.09
2019-05-30T08:16:51.610Z,33.91
2019-05-30T08:17:54.901Z,42.29
2019-05-30T08:18:57.380Z,34.48
2019-05-30T08:19:59.975Z,35.32
2019-05-30T08:21:02.981Z,36.65
2019-05-30T08:22:05.406Z,36.44
2019-05-30T08:23:09.884Z,36.22
2019-05-30T08:24:12.875Z,35.51
2019-05-30T08:25:16.424Z,34.64
2019-05-30T08:26:21.571Z,38.04
2019-05-30T08:27:23.883Z,40.21
2019-05-30T08:28:28.678Z,34.71
2019-05-30T08:29:32.187Z,39.04
2019-05-30T08:30:34.633Z,35.98
2019-05-30T08:31:41.923Z,39.42
2019-05-30T08:32:45.767Z,38.25
2019-05-30T08:33:48.243Z,34.37
2019-05-30T08:34:50.899Z,34.72
2019-05-30T08:35:53.574Z,36.85
2019-05-30T08:36:56.467Z,35.05
2019-05-30T08:37:59.404Z,34.91
2019-05-30T08:39:04.398Z,35.62
2019-05-30T08:40:08.442Z,36.01
2019-05-30T08:41:11.328Z,36.14
2019-05-30T08:42:15.133Z,36.34
2019-05-30T08:43:17.721Z,36.58
2019-05-30T08:44:20.849Z,38.85
2019-05-30T08:45:23.147Z,37.27
2019-05-30T08:46:26.790Z,38.24
2019-05-30T08:47:31.846Z,37.34
2019-05-30T08:48:36.118Z,41.71
2019-05-30T08:49:40.387Z,37.89
2019-05-30T08:50:44.974Z,39.87
2019-05-30T08:51:49.287Z,38.66
2019-05-30T08:52:51.435Z,37.57
2019-05-30T08:53:53.692Z,36.88
2019-05-30T08:54:56.087Z,37.96
2019-05-30T08:55:58.356Z,38.21
2019-05-30T08:57:01.115Z,40.08
2019-05-30T08:58:03.430Z,43.07
2019-05-30T08:59:05.903Z,38.02
2019-05-30T09:00:13.355Z,37.31
2019-05-30T09:01:17.799Z,39.03
2019-05-30T09:02:20.572Z,38.85
2019-05-30T09:03:22.944Z,38.17
2019-05-30T09:04:25.419Z,37.53
2019-05-30T09:05:28.328Z,39.26
2019-05-30T09:06:31.146Z,40.51
2019-05-30T09:07:33.710Z,40.86
2019-05-30T09:08:36.052Z,38.23
2019-05-30T09:09:38.455Z,38.94
2019-05-30T09:10:40.970Z,39.48
2019-05-30T09:11:44.488Z,41.17
2019-05-30T09:12:49.589Z,40.58
2019-05-30T09:13:52.061Z,39.31
2019-05-30T09:14:55.087Z,39.59
2019-05-30T09:15:57.501Z,37.93
2019-05-30T09:17:00.603Z,38.81
2019-05-30T09:18:03.621Z,38.96
2019-05-30T09:19:05.435Z,39.00
2019-05-30T09:20:11.731Z,38.73
2019-05-30T09:21:16.131Z,39.36
2019-05-30T09:22:18.943Z,38.59
2019-05-30T09:23:21.547Z,39.07
2019-05-30T09:24:24.728Z,39.21
2019-05-30T09:25:29.394Z,37.31
2019-05-30T09:26:31.792Z,37.58
2019-05-30T09:27:34.233Z,38.59
2019-05-30T09:28:37.738Z,37.48
2019-05-30T09:29:42.858Z,38.47
2019-05-30T09:30:46.491Z,39.05
2019-05-30T09:31:51.167Z,38.85
2019-05-30T09:32:53.494Z,38.12
2019-05-30T09:33:56.126Z,39.20
2019-05-30T09:34:57.923Z,39.37
2019-05-30T09:36:12.886Z,40.52
2019-05-30T09:37:05.229Z,40.16
2019-05-30T09:38:07.841Z,40.24
2019-05-30T09:39:10.809Z,39.31
2019-05-30T09:40:14.198Z,39.50
2019-05-30T09:41:17.602Z,39.75
2019-05-30T09:42:20.854Z,39.90
2019-05-30T09:43:23.221Z,40.59
2019-05-30T09:44:26.174Z,40.81
2019-05-30T09:45:31.564Z,41.27
2019-05-30T09:46:34.320Z,40.58
2019-05-30T09:47:37.198Z,41.03
2019-05-30T09:48:41.901Z,41.26
2019-05-30T09:49:44.943Z,40.60
2019-05-30T09:50:48.744Z,40.21
2019-05-30T09:51:51.346Z,41.12
2019-05-30T09:52:54.001Z,40.68
2019-05-30T09:53:56.532Z,40.89
2019-05-30T09:55:00.561Z,39.48
2019-05-30T09:56:04.154Z,40.00
2019-05-30T09:57:07.022Z,40.82
2019-05-30T09:58:09.789Z,41.79
2019-05-30T09:59:12.214Z,40.66
2019-05-30T10:00:17.801Z,41.57
2019-05-30T10:01:20.432Z,41.15
2019-05-30T10:02:23.168Z,40.50
2019-05-30T10:03:25.294Z,40.63
2019-05-30T10:04:28.873Z,41.48
2019-05-30T10:05:31.841Z,41.36
2019-05-30T10:06:35.935Z,40.88
2019-05-30T10:07:38.517Z,41.07
2019-05-30T10:08:41.037Z,40.19
2019-05-30T10:09:44.515Z,40.63
2019-05-30T10:10:49.156Z,40.28
2019-05-30T10:11:53.504Z,40.39
2019-05-30T10:12:56.294Z,40.17
2019-05-30T10:14:01.036Z,40.59
2019-05-30T10:15:12.376Z,40.41
2019-05-30T10:16:15.046Z,40.04
2019-05-30T10:17:17.401Z,41.11
2019-05-30T10:18:20.133Z,41.90
2019-05-30T10:19:24.282Z,41.00
2019-05-30T10:20:26.952Z,41.70
2019-05-30T10:21:30.384Z,41.14
2019-05-30T10:22:34.765Z,40.98
2019-05-30T10:23:37.031Z,40.72
2019-05-30T10:24:42.922Z,41.23
2019-05-30T10:25:45.968Z,40.69
2019-05-30T10:26:51.128Z,40.08
2019-05-30T10:27:55.010Z,40.59
2019-05-30T10:28:57.633Z,39.98
2019-05-30T10:30:01.316Z,39.99
2019-05-30T10:31:04.403Z,39.52
2019-05-30T10:32:07.498Z,40.31
2019-05-30T10:33:09.875Z,41.14
2019-05-30T10:34:11.927Z,40.57
2019-05-30T10:35:15.247Z,40.22
2019-05-30T10:36:20.103Z,41.23
2019-05-30T10:37:22.299Z,42.60
2019-05-30T10:38:24.924Z,42.89
2019-05-30T10:39:29.241Z,43.18
2019-05-30T10:40:33.282Z,42.40
2019-05-30T10:41:35.709Z,43.21
2019-05-30T10:42:39.153Z,42.33
2019-05-30T10:43:42.382Z,42.45
2019-05-30T10:44:46.240Z,43.03
2019-05-30T10:45:51.158Z,43.33
2019-05-30T10:46:56.535Z,43.33
2019-05-30T10:47:59.186Z,43.25
2019-05-30T10:49:01.260Z,42.24
2019-05-30T10:50:08.283Z,42.26
2019-05-30T10:51:10.731Z,42.29
2019-05-30T10:52:13.552Z,41.89
2019-05-30T10:53:17.674Z,41.73
2019-05-30T10:54:20.711Z,41.45
2019-05-30T10:55:24.480Z,41.72
2019-05-30T10:56:27.558Z,42.60
2019-05-30T10:57:29.862Z,41.97
2019-05-30T10:58:32.442Z,42.37
2019-05-30T10:59:34.751Z,41.44
2019-05-30T11:00:48.905Z,41.50
2019-05-30T11:01:53.010Z,42.01
2019-05-30T11:02:57.110Z,42.11
2019-05-30T11:03:59.780Z,42.94
2019-05-30T11:05:05.779Z,43.59
2019-05-30T11:06:40.898Z,43.70
2019-05-30T11:08:00.104Z,42.88
2019-05-30T11:08:56.925Z,42.09
2019-05-30T11:10:11.079Z,41.61
2019-05-30T11:11:14.186Z,41.16
2019-05-30T11:12:17.365Z,40.79
2019-05-30T11:13:19.551Z,40.83
2019-05-30T11:14:23.332Z,40.89
2019-05-30T11:15:26.300Z,40.54
2019-05-30T11:16:28.722Z,39.99
2019-05-30T11:17:31.150Z,39.97
2019-05-30T11:18:34.300Z,39.78
2019-05-30T11:19:38.889Z,39.98
2019-05-30T11:20:41.323Z,40.34
2019-05-30T11:21:43.978Z,40.43
2019-05-30T11:22:46.438Z,41.15
2019-05-30T11:23:51.415Z,40.13
2019-05-30T11:24:54.911Z,40.64
2019-05-30T11:25:57.299Z,41.34
2019-05-30T11:26:59.725Z,40.62
2019-05-30T11:28:01.765Z,40.33
2019-05-30T11:29:04.811Z,40.21
2019-05-30T11:30:08.634Z,39.95
2019-05-30T11:31:12.368Z,39.40
2019-05-30T11:32:16.491Z,39.19
2019-05-30T11:33:18.812Z,40.58
2019-05-30T11:34:22.064Z,39.86
2019-05-30T11:35:24.712Z,40.49
2019-05-30T11:36:28.408Z,41.08
2019-05-30T11:37:31.009Z,40.88
2019-05-30T11:38:33.498Z,40.54
2019-05-30T11:39:36.082Z,40.05
2019-05-30T11:40:39.767Z,40.20
2019-05-30T11:41:43.813Z,39.94
2019-05-30T11:42:46.431Z,39.81
2019-05-30T11:43:51.450Z,39.86
2019-05-30T11:44:54.125Z,40.10
2019-05-30T11:45:57.792Z,40.00
2019-05-30T11:47:00.912Z,40.07
2019-05-30T11:48:03.774Z,39.87
2019-05-30T11:49:06.831Z,39.71
2019-05-30T11:50:12.946Z,39.74
2019-05-30T11:51:13.917Z,39.60
2019-05-30T11:52:15.896Z,39.22
2019-05-30T11:53:18.911Z,45.44
2019-05-30T11:54:21.636Z,41.16
2019-05-30T11:55:25.092Z,40.45
2019-05-30T11:56:27.424Z,39.92
2019-05-30T11:57:29.999Z,41.02
2019-05-30T11:58:34.455Z,42.25
2019-05-30T11:59:37.193Z,43.30
2019-05-30T12:00:40.041Z,44.05
2019-05-30T12:01:42.463Z,44.69
2019-05-30T12:02:45.344Z,45.31
2019-05-30T12:03:50.478Z,45.56
2019-05-30T12:04:53.184Z,43.37
2019-05-30T12:05:56.593Z,44.88
2019-05-30T12:06:58.943Z,42.51
2019-05-30T12:08:01.740Z,42.22
2019-05-30T12:09:06.061Z,43.25
2019-05-30T12:10:11.714Z,43.32
2019-05-30T12:11:14.459Z,43.63
2019-05-30T12:12:16.544Z,42.78
2019-05-30T12:13:19.469Z,42.49
2019-05-30T12:14:23.019Z,43.84
2019-05-30T12:15:25.592Z,41.57
2019-05-30T12:16:28.986Z,41.35
2019-05-30T12:17:31.905Z,42.26
2019-05-30T12:18:34.333Z,41.98
2019-05-30T12:19:38.603Z,40.64
2019-05-30T12:20:41.567Z,40.36
2019-05-30T12:21:43.343Z,41.34
2019-05-30T12:22:45.192Z,40.50
2019-05-30T12:23:48.008Z,40.29
2019-05-30T12:24:50.119Z,40.70
2019-05-30T12:25:53.962Z,41.13
2019-05-30T12:26:57.999Z,40.79
2019-05-30T12:28:00.365Z,39.34
2019-05-30T12:29:04.433Z,40.44
2019-05-30T12:30:07.806Z,40.18
2019-05-30T12:31:10.193Z,39.20
2019-05-30T12:32:12.845Z,40.08
2019-05-30T12:33:14.550Z,40.63
2019-05-30T12:34:20.570Z,39.80
2019-05-30T12:35:24.270Z,39.57
2019-05-30T12:36:26.906Z,39.40
2019-05-30T12:37:30.051Z,40.24
2019-05-30T12:38:34.597Z,41.37
2019-05-30T12:39:38.220Z,41.10
2019-05-30T12:40:40.852Z,39.72
2019-05-30T12:41:43.199Z,40.87
2019-05-30T12:42:45.088Z,40.63
2019-05-30T12:43:47.799Z,39.84
2019-05-30T12:44:50.355Z,40.48
2019-05-30T12:45:52.895Z,39.73
2019-05-30T12:46:55.630Z,39.34
2019-05-30T12:47:59.229Z,40.20
2019-05-30T12:49:03.517Z,41.18
2019-05-30T12:50:10.623Z,40.36
2019-05-30T12:51:13.134Z,39.74
2019-05-30T12:52:17.321Z,40.35
2019-05-30T12:53:22.022Z,40.57
2019-05-30T12:54:24.942Z,40.78
2019-05-30T12:55:27.466Z,41.52
2019-05-30T12:56:30.402Z,41.71
2019-05-30T12:57:32.852Z,40.75
2019-05-30T12:58:35.612Z,40.71
2019-05-30T12:59:38.346Z,41.64
2019-05-30T13:00:41.448Z,39.57
2019-05-30T13:01:43.914Z,40.18
2019-05-30T13:02:46.330Z,40.55
2019-05-30T13:03:49.537Z,41.04
2019-05-30T13:04:51.922Z,40.84
2019-05-30T13:05:55.088Z,41.78
2019-05-30T13:06:59.255Z,40.56
2019-05-30T13:08:17.955Z,42.09
2019-05-30T13:09:09.490Z,43.50
2019-05-30T13:10:13.030Z,42.20
2019-05-30T13:11:17.128Z,42.51
2019-05-30T13:12:21.146Z,44.53
2019-05-30T13:13:22.914Z,42.72
2019-05-30T13:14:27.301Z,42.54
2019-05-30T13:15:31.200Z,43.04
2019-05-30T13:16:33.342Z,43.95
2019-05-30T13:17:36.231Z,43.10
2019-05-30T13:18:39.503Z,44.48
2019-05-30T13:19:42.833Z,44.03
2019-05-30T13:20:46.131Z,43.99
2019-05-30T13:21:53.658Z,44.21
2019-05-30T13:22:54.679Z,46.39
2019-05-30T13:23:57.767Z,46.00
2019-05-30T13:24:59.757Z,47.21
2019-05-30T13:26:03.707Z,45.84
2019-05-30T13:27:06.546Z,44.16
2019-05-30T13:28:08.816Z,44.91
2019-05-30T13:29:12.327Z,44.63
2019-05-30T13:30:16.522Z,44.35
2019-05-30T13:31:18.703Z,45.05
2019-05-30T13:32:21.376Z,45.05
2019-05-30T13:33:24.284Z,44.29
2019-05-30T13:34:27.075Z,44.74
2019-05-30T13:35:30.734Z,44.06
2019-05-30T13:36:32.435Z,44.30
2019-05-30T13:37:35.113Z,44.47
2019-05-30T13:38:38.061Z,44.52
2019-05-30T13:39:41.307Z,45.40